Time;durP1;ratioP1;P1;durP2;ratioP2;P2;SDS_P1;SDS_P2;PMS_P1;PMS_P2;Temp;Humidity;BMP_temperature;BMP_pressure;BME280_temperature;BME280_humidity;BME280_pressure;Samples;Min_cycle;Max_cycle;Signal;HPM_P1;HPM_P2
2021/09/08 00:01:19;;;;;;;13.05;7.05;;;;;;;;;;5010939;28;20046;-71
2021/09/08 00:03:49;;;;;;;13.82;6.85;;;;;;;;;;5009965;28;20053;-72
2021/09/08 00:06:18;;;;;;;12.77;7.38;;;;;;;;;;5009174;28;21392;-70
2021/09/08 00:08:47;;;;;;;12.10;6.45;;;;;;;;;;5010294;28;20433;-67
2021/09/08 00:11:15;;;;;;;12.63;6.43;;;;;;;;;;5010510;28;20050;-67
2021/09/08 00:13:44;;;;;;;13.35;6.88;;;;;;;;;;5010153;28;20046;-67
2021/09/08 00:16:12;;;;;;;13.60;7.05;;;;;;;;;;5009838;28;20077;-67
2021/09/08 00:18:40;;;;;;;16.52;7.90;;;;;;;;;;5010167;28;20108;-72
2021/09/08 00:21:10;;;;;;;13.60;7.05;;;;;;;;;;5010508;28;20046;-67
2021/09/08 00:23:39;;;;;;;12.63;6.43;;;;;;;;;;5010602;28;20053;-67
2021/09/08 00:26:07;;;;;;;16.05;7.57;;;;;;;;;;5005790;28;20043;-67
2021/09/08 00:28:36;;;;;;;12.00;6.63;;;;;;;;;;5000304;28;20402;-67
2021/09/08 00:31:04;;;;;;;14.43;6.47;;;;;;;;;;5005971;28;20525;-68
2021/09/08 00:33:33;;;;;;;11.98;6.45;;;;;;;;;;5010420;28;20517;-70
2021/09/08 00:36:01;;;;;;;12.23;6.82;;;;;;;;;;5010080;28;20054;-67
2021/09/08 00:38:31;;;;;;;14.82;6.78;;;;;;;;;;5010008;28;20132;-72
2021/09/08 00:40:59;;;;;;;15.80;7.55;;;;;;;;;;5011242;28;20064;-67
2021/09/08 00:43:27;;;;;;;13.48;7.15;;;;;;;;;;5020559;28;20133;-67
2021/09/08 00:45:56;;;;;;;14.38;7.00;;;;;;;;;;5008892;28;20137;-68
2021/09/08 00:48:25;;;;;;;16.13;7.70;;;;;;;;;;5010105;28;20045;-67
2021/09/08 00:50:55;;;;;;;15.95;6.93;;;;;;;;;;5002649;28;20056;-67
2021/09/08 00:53:24;;;;;;;18.45;7.60;;;;;;;;;;5008330;28;20034;-70
2021/09/08 00:55:54;;;;;;;13.25;6.40;;;;;;;;;;5007903;28;20058;-75
2021/09/08 00:58:22;;;;;;;12.32;5.90;;;;;;;;;;5007407;28;20077;-68
2021/09/08 01:00:51;;;;;;;17.85;6.72;;;;;;;;;;5010527;28;20129;-67
2021/09/08 01:03:19;;;;;;;13.60;7.45;;;;;;;;;;4999740;28;20108;-67
2021/09/08 01:05:48;;;;;;;14.02;7.28;;;;;;;;;;5007740;28;20518;-67
2021/09/08 01:08:16;;;;;;;14.88;7.65;;;;;;;;;;5010146;28;20077;-67
2021/09/08 01:10:46;;;;;;;12.52;6.80;;;;;;;;;;5009998;28;20058;-71
2021/09/08 01:13:15;;;;;;;14.52;7.07;;;;;;;;;;5009532;28;20141;-70
2021/09/08 01:15:55;;;;;;;16.25;7.18;;;;;;;;;;5008066;28;20062;-67
2021/09/08 01:18:23;;;;;;;15.88;7.07;;;;;;;;;;5010216;28;20330;-72
2021/09/08 01:20:52;;;;;;;14.52;6.55;;;;;;;;;;5009000;28;20133;-67
2021/09/08 01:23:22;;;;;;;13.05;7.03;;;;;;;;;;5009561;28;20054;-72
2021/09/08 01:25:50;;;;;;;14.68;7.40;;;;;;;;;;5004735;28;20084;-70
2021/09/08 01:28:18;;;;;;;13.00;7.05;;;;;;;;;;5005398;28;20410;-69
2021/09/08 01:30:47;;;;;;;14.15;7.32;;;;;;;;;;5010780;28;20108;-67
2021/09/08 01:33:15;;;;;;;14.48;6.97;;;;;;;;;;5009143;28;20053;-67
2021/09/08 01:35:44;;;;;;;12.95;6.63;;;;;;;;;;5009910;28;20111;-67
2021/09/08 01:38:12;;;;;;;15.82;7.85;;;;;;;;;;4991963;28;20145;-67
2021/09/08 01:40:42;;;;;;;15.15;7.63;;;;;;;;;;5008746;28;20176;-67
2021/09/08 01:43:10;;;;;;;15.43;6.85;;;;;;;;;;5002364;28;20046;-67
2021/09/08 01:45:39;;;;;;;15.90;6.82;;;;;;;;;;5009549;28;20084;-68
2021/09/08 01:48:08;;;;;;;16.77;6.57;;;;;;;;;;5008782;28;20541;-67
2021/09/08 01:50:36;;;;;;;14.57;7.40;;;;;;;;;;5007445;28;20096;-67
2021/09/08 01:53:05;;;;;;;11.15;6.43;;;;;;;;;;5010304;28;20045;-67
2021/09/08 01:55:33;;;;;;;13.90;7.03;;;;;;;;;;5011292;28;20457;-69
2021/09/08 01:58:05;;;;;;;14.23;7.47;;;;;;;;;;5007036;28;20506;-71
2021/09/08 02:00:33;;;;;;;12.98;6.57;;;;;;;;;;5013956;28;20056;-74
2021/09/08 02:03:02;;;;;;;13.00;6.90;;;;;;;;;;5011930;28;20077;-67
2021/09/08 02:05:31;;;;;;;14.50;6.65;;;;;;;;;;5012347;28;20414;-67
2021/09/08 02:07:59;;;;;;;15.52;6.75;;;;;;;;;;5013126;28;20509;-67
2021/09/08 02:10:27;;;;;;;12.05;6.50;;;;;;;;;;5013775;28;20495;-66
2021/09/08 02:12:56;;;;;;;14.18;6.53;;;;;;;;;;5013461;28;20497;-75
2021/09/08 02:15:26;;;;;;;14.10;6.68;;;;;;;;;;4995407;28;20553;-67
2021/09/08 02:17:54;;;;;;;14.80;7.28;;;;;;;;;;5012051;28;20054;-68
2021/09/08 02:20:22;;;;;;;12.32;6.57;;;;;;;;;;5013778;28;20085;-68
2021/09/08 02:22:51;;;;;;;12.52;6.05;;;;;;;;;;5013754;28;20046;-67
2021/09/08 02:25:19;;;;;;;16.25;6.28;;;;;;;;;;5012598;28;20573;-69
2021/09/08 02:27:47;;;;;;;11.20;5.47;;;;;;;;;;5008830;28;20485;-66
2021/09/08 02:30:15;;;;;;;13.05;6.50;;;;;;;;;;5010087;28;20043;-67
2021/09/08 02:32:45;;;;;;;13.75;6.10;;;;;;;;;;5012625;28;20125;-67
2021/09/08 02:35:13;;;;;;;11.85;6.10;;;;;;;;;;5012906;28;20132;-67
2021/09/08 02:37:42;;;;;;;11.15;6.38;;;;;;;;;;5011909;28;20100;-71
2021/09/08 02:40:10;;;;;;;14.05;5.97;;;;;;;;;;5015094;28;20050;-67
2021/09/08 02:42:38;;;;;;;13.35;6.43;;;;;;;;;;5026418;28;20049;-67
2021/09/08 02:45:07;;;;;;;11.40;6.05;;;;;;;;;;5012565;28;20050;-67
2021/09/08 02:47:36;;;;;;;11.98;5.97;;;;;;;;;;5013443;28;20056;-67
2021/09/08 02:50:06;;;;;;;11.82;6.30;;;;;;;;;;5012076;28;20137;-73
2021/09/08 02:52:35;;;;;;;15.02;6.93;;;;;;;;;;5012679;28;20089;-72
2021/09/08 02:55:03;;;;;;;12.05;6.15;;;;;;;;;;5011932;28;20170;-70
2021/09/08 02:57:32;;;;;;;14.10;6.72;;;;;;;;;;5009009;28;20061;-68
2021/09/08 03:00:00;;;;;;;17.52;6.35;;;;;;;;;;5010952;28;20430;-67
2021/09/08 03:02:28;;;;;;;12.57;6.03;;;;;;;;;;5013276;28;20460;-68
2021/09/08 03:04:57;;;;;;;15.20;6.57;;;;;;;;;;5009610;28;20116;-67
2021/09/08 03:07:27;;;;;;;15.73;6.68;;;;;;;;;;5010237;28;20470;-68
2021/09/08 03:09:55;;;;;;;12.93;6.35;;;;;;;;;;5011699;28;20092;-71
2021/09/08 03:12:23;;;;;;;10.68;5.93;;;;;;;;;;5013457;28;20092;-67
2021/09/08 03:14:52;;;;;;;12.73;6.50;;;;;;;;;;5011706;28;20141;-67
2021/09/08 03:17:20;;;;;;;13.95;6.10;;;;;;;;;;5012210;28;20145;-67
2021/09/08 03:19:48;;;;;;;15.43;6.18;;;;;;;;;;5007468;28;20133;-67
2021/09/08 03:22:17;;;;;;;15.40;6.55;;;;;;;;;;5010845;28;20066;-67
2021/09/08 03:24:46;;;;;;;14.18;6.82;;;;;;;;;;5011572;28;20056;-67
2021/09/08 03:27:18;;;;;;;13.25;6.35;;;;;;;;;;1441466;28;10022672;-68
2021/09/08 03:29:47;;;;;;;12.55;6.20;;;;;;;;;;3970565;28;10001103;-67
2021/09/08 03:32:15;;;;;;;12.30;6.43;;;;;;;;;;5012267;28;20054;-67
2021/09/08 03:34:43;;;;;;;15.15;6.47;;;;;;;;;;5010774;28;20054;-67
2021/09/08 03:37:12;;;;;;;10.60;5.82;;;;;;;;;;5012551;28;20132;-70
2021/09/08 03:39:40;;;;;;;13.70;5.97;;;;;;;;;;5010301;28;20052;-67
2021/09/08 03:42:10;;;;;;;12.15;6.32;;;;;;;;;;5011910;28;20211;-68
2021/09/08 03:44:38;;;;;;;13.50;6.32;;;;;;;;;;5008435;28;20050;-67
2021/09/08 03:47:06;;;;;;;17.75;6.88;;;;;;;;;;5012186;28;20056;-70
2021/09/08 03:49:36;;;;;;;12.75;7.07;;;;;;;;;;5008406;28;20058;-74
2021/09/08 03:52:05;;;;;;;12.98;6.30;;;;;;;;;;5008316;28;20046;-67
2021/09/08 03:54:34;;;;;;;17.13;6.85;;;;;;;;;;5010580;28;20064;-70
2021/09/08 03:57:03;;;;;;;12.73;6.63;;;;;;;;;;5013103;28;20136;-72
2021/09/08 03:59:32;;;;;;;15.25;7.00;;;;;;;;;;5011032;28;20081;-67
2021/09/08 04:02:01;;;;;;;10.60;6.22;;;;;;;;;;5011252;28;20049;-67
2021/09/08 04:04:29;;;;;;;12.00;6.03;;;;;;;;;;5010293;28;20053;-67
2021/09/08 04:06:58;;;;;;;11.35;6.25;;;;;;;;;;5011963;28;20049;-67
2021/09/08 04:09:31;;;;;;;16.27;7.22;;;;;;;;;;5011370;28;20077;-69
2021/09/08 04:12:00;;;;;;;34.92;10.00;;;;;;;;;;5011031;28;20038;-69
2021/09/08 04:14:28;;;;;;;31.92;10.25;;;;;;;;;;5010162;28;20145;-70
2021/09/08 04:16:57;;;;;;;36.90;10.32;;;;;;;;;;5011445;28;20052;-67
2021/09/08 04:19:26;;;;;;;27.17;9.93;;;;;;;;;;5006728;28;20038;-68
2021/09/08 04:21:54;;;;;;;28.73;10.32;;;;;;;;;;5011131;28;20046;-67
2021/09/08 04:24:22;;;;;;;25.65;9.35;;;;;;;;;;5009894;28;20441;-69
2021/09/08 04:26:50;;;;;;;23.15;8.80;;;;;;;;;;5011877;28;20046;-71
2021/09/08 04:29:19;;;;;;;17.55;7.30;;;;;;;;;;5002096;28;20128;-67
2021/09/08 04:31:47;;;;;;;17.52;6.95;;;;;;;;;;5010597;28;20037;-67
2021/09/08 04:34:17;;;;;;;17.33;7.55;;;;;;;;;;5003993;28;20057;-71
2021/09/08 04:36:45;;;;;;;15.90;6.97;;;;;;;;;;5009446;28;20085;-67
2021/09/08 04:39:13;;;;;;;15.55;6.88;;;;;;;;;;5011024;28;20046;-69
2021/09/08 04:41:42;;;;;;;16.65;7.70;;;;;;;;;;5010088;28;20409;-67
2021/09/08 04:44:10;;;;;;;14.68;7.10;;;;;;;;;;5010860;28;20124;-66
2021/09/08 04:46:38;;;;;;;14.55;6.70;;;;;;;;;;5011008;28;20401;-69
2021/09/08 04:49:07;;;;;;;14.32;7.15;;;;;;;;;;5008900;28;20046;-74
2021/09/08 04:51:36;;;;;;;14.18;6.72;;;;;;;;;;5005229;28;20470;-67
2021/09/08 04:54:04;;;;;;;13.80;6.18;;;;;;;;;;5011078;28;20133;-67
2021/09/08 04:56:33;;;;;;;18.55;6.28;;;;;;;;;;5009467;28;20418;-70
2021/09/08 04:59:01;;;;;;;17.48;6.63;;;;;;;;;;5002659;28;20265;-68
2021/09/08 05:01:29;;;;;;;15.75;7.28;;;;;;;;;;5000658;28;20137;-68
2021/09/08 05:03:58;;;;;;;18.00;6.80;;;;;;;;;;4996422;28;20054;-73
2021/09/08 05:06:27;;;;;;;15.07;6.80;;;;;;;;;;5000849;28;20074;-67
2021/09/08 05:08:56;;;;;;;15.15;7.10;;;;;;;;;;5003803;28;20078;-70
2021/09/08 05:11:25;;;;;;;18.27;7.22;;;;;;;;;;5008838;28;20101;-66
2021/09/08 05:13:53;;;;;;;15.15;6.95;;;;;;;;;;5000277;28;20576;-67
2021/09/08 05:16:22;;;;;;;16.27;7.20;;;;;;;;;;5004698;28;20045;-68
2021/09/08 05:18:50;;;;;;;14.10;6.53;;;;;;;;;;5002412;28;20078;-67
2021/09/08 05:21:19;;;;;;;13.27;7.28;;;;;;;;;;4990925;28;20060;-70
2021/09/08 05:23:47;;;;;;;13.13;6.63;;;;;;;;;;5012692;28;20107;-67
2021/09/08 05:26:17;;;;;;;15.30;6.97;;;;;;;;;;5008299;28;20059;-70
2021/09/08 05:28:45;;;;;;;14.65;6.57;;;;;;;;;;5004717;28;20081;-69
2021/09/08 05:31:14;;;;;;;15.85;7.18;;;;;;;;;;5000840;28;20466;-68
2021/09/08 05:33:42;;;;;;;16.77;7.93;;;;;;;;;;5006090;28;20447;-67
2021/09/08 05:36:10;;;;;;;15.80;6.53;;;;;;;;;;5003175;28;20108;-67
2021/09/08 05:38:39;;;;;;;15.77;6.75;;;;;;;;;;4999036;28;20486;-71
2021/09/08 05:41:09;;;;;;;17.00;6.53;;;;;;;;;;5000767;28;20038;-69
2021/09/08 05:43:39;;;;;;;15.93;6.68;;;;;;;;;;5004329;28;20049;-67
2021/09/08 05:46:07;;;;;;;16.30;7.40;;;;;;;;;;5007337;28;20057;-67
2021/09/08 05:48:36;;;;;;;14.55;6.35;;;;;;;;;;4998284;28;20073;-67
2021/09/08 05:51:04;;;;;;;15.30;6.95;;;;;;;;;;4997655;28;20046;-71
2021/09/08 05:53:32;;;;;;;13.60;7.15;;;;;;;;;;5002638;28;20068;-67
2021/09/08 05:56:01;;;;;;;17.02;7.88;;;;;;;;;;5005556;28;20129;-69
2021/09/08 05:58:30;;;;;;;17.60;8.05;;;;;;;;;;4997252;28;20469;-70
2021/09/08 06:01:00;;;;;;;18.33;7.65;;;;;;;;;;4992109;28;20482;-69
2021/09/08 06:03:29;;;;;;;21.13;8.05;;;;;;;;;;4996791;28;20058;-72
2021/09/08 06:05:58;;;;;;;17.67;8.50;;;;;;;;;;4990287;28;20458;-71
2021/09/08 06:08:28;;;;;;;17.55;8.25;;;;;;;;;;4988272;28;20064;-73
2021/09/08 06:10:56;;;;;;;21.20;8.88;;;;;;;;;;4990062;28;20080;-71
2021/09/08 06:13:24;;;;;;;15.95;8.27;;;;;;;;;;4999946;28;20061;-68
2021/09/08 06:15:52;;;;;;;15.85;8.85;;;;;;;;;;5005179;28;20045;-70
2021/09/08 06:18:22;;;;;;;15.98;8.10;;;;;;;;;;5004646;28;20054;-69
2021/09/08 06:20:50;;;;;;;18.88;8.98;;;;;;;;;;5005426;28;20042;-71
2021/09/08 06:23:19;;;;;;;18.67;8.90;;;;;;;;;;5003167;28;20050;-68
2021/09/08 06:25:47;;;;;;;17.15;8.73;;;;;;;;;;5004247;28;20054;-69
2021/09/08 06:28:18;;;;;;;17.17;8.63;;;;;;;;;;5004279;28;20490;-72
2021/09/08 06:30:46;;;;;;;18.95;9.90;;;;;;;;;;4997474;28;20050;-69
2021/09/08 06:33:15;;;;;;;21.30;9.35;;;;;;;;;;4996798;28;20042;-69
2021/09/08 06:35:45;;;;;;;28.30;13.45;;;;;;;;;;5000724;28;20076;-71
2021/09/08 06:38:13;;;;;;;21.65;10.65;;;;;;;;;;4999258;28;20046;-67
2021/09/08 06:40:41;;;;;;;24.35;10.45;;;;;;;;;;4997208;28;20049;-68
2021/09/08 06:43:09;;;;;;;28.70;12.32;;;;;;;;;;5003849;28;20056;-74
2021/09/08 06:45:38;;;;;;;28.70;12.52;;;;;;;;;;5007957;28;20490;-68
2021/09/08 06:48:06;;;;;;;25.08;12.45;;;;;;;;;;5006332;28;20410;-67
2021/09/08 06:50:35;;;;;;;29.88;13.75;;;;;;;;;;5006403;28;20044;-70
2021/09/08 06:53:05;;;;;;;34.90;13.27;;;;;;;;;;5000335;28;20585;-76
2021/09/08 06:55:33;;;;;;;25.38;11.88;;;;;;;;;;5006413;28;20050;-71
2021/09/08 06:58:01;;;;;;;27.10;12.32;;;;;;;;;;5007373;28;20081;-67
2021/09/08 07:00:30;;;;;;;29.33;13.30;;;;;;;;;;5005313;28;20045;-67
2021/09/08 07:02:59;;;;;;;23.30;11.00;;;;;;;;;;5002479;28;20042;-70
2021/09/08 07:05:28;;;;;;;23.85;11.85;;;;;;;;;;5002738;28;20437;-76
2021/09/08 07:07:57;;;;;;;25.52;11.95;;;;;;;;;;5009845;28;20504;-67
2021/09/08 07:10:27;;;;;;;28.27;12.60;;;;;;;;;;5009835;28;20406;-67
2021/09/08 07:12:56;;;;;;;25.27;11.30;;;;;;;;;;5010864;28;20057;-67
2021/09/08 07:15:24;;;;;;;25.63;12.27;;;;;;;;;;5007490;28;20469;-68
2021/09/08 07:17:53;;;;;;;29.13;13.57;;;;;;;;;;5000286;28;20096;-71
2021/09/08 07:20:23;;;;;;;29.23;12.85;;;;;;;;;;5004632;28;20045;-68
2021/09/08 07:22:51;;;;;;;24.67;11.93;;;;;;;;;;5008027;28;20124;-69
2021/09/08 07:25:20;;;;;;;25.05;12.88;;;;;;;;;;5007582;28;20441;-68
2021/09/08 07:27:55;;;;;;;30.40;12.93;;;;;;;;;;5005357;28;20053;-68
2021/09/08 07:30:23;;;;;;;22.65;11.45;;;;;;;;;;5002065;28;20050;-69
2021/09/08 07:32:52;;;;;;;22.80;11.48;;;;;;;;;;5002494;28;20050;-67
2021/09/08 07:35:20;;;;;;;25.70;11.77;;;;;;;;;;5006623;28;20049;-69
2021/09/08 07:37:49;;;;;;;27.95;12.95;;;;;;;;;;5003251;28;20502;-67
2021/09/08 07:40:18;;;;;;;24.10;10.68;;;;;;;;;;5002184;28;20071;-69
2021/09/08 07:42:47;;;;;;;21.08;11.30;;;;;;;;;;5008891;28;20050;-67
2021/09/08 07:45:17;;;;;;;22.30;10.27;;;;;;;;;;5008896;28;20084;-67
2021/09/08 07:47:45;;;;;;;21.38;10.90;;;;;;;;;;5006068;28;20042;-68
2021/09/08 07:50:15;;;;;;;22.02;11.07;;;;;;;;;;4999413;28;20056;-66
2021/09/08 07:52:44;;;;;;;23.92;11.55;;;;;;;;;;5007081;28;20042;-67
2021/09/08 07:55:13;;;;;;;24.45;10.85;;;;;;;;;;5006205;28;20137;-67
2021/09/08 07:57:42;;;;;;;21.35;10.90;;;;;;;;;;4998464;28;20054;-72
2021/09/08 08:00:11;;;;;;;19.85;11.00;;;;;;;;;;4991757;28;20104;-69
2021/09/08 08:02:45;;;;;;;19.30;10.60;;;;;;;;;;4987604;28;20153;-69
2021/09/08 08:05:15;;;;;;;18.48;9.95;;;;;;;;;;5003594;28;20054;-67
2021/09/08 08:07:45;;;;;;;19.35;9.88;;;;;;;;;;4998862;28;20057;-67
2021/09/08 08:10:14;;;;;;;21.45;10.55;;;;;;;;;;5003783;28;20050;-69
2021/09/08 08:12:43;;;;;;;18.67;9.77;;;;;;;;;;5003976;28;20124;-69
2021/09/08 08:15:13;;;;;;;20.83;10.05;;;;;;;;;;5004048;28;20053;-69
2021/09/08 08:17:42;;;;;;;17.42;9.35;;;;;;;;;;5006289;28;20056;-73
2021/09/08 08:20:12;;;;;;;19.55;8.63;;;;;;;;;;5005449;28;20088;-67
2021/09/08 08:22:41;;;;;;;18.83;9.40;;;;;;;;;;5007223;28;20052;-66
2021/09/08 08:25:11;;;;;;;18.42;9.20;;;;;;;;;;4999163;28;20720;-67
2021/09/08 08:27:40;;;;;;;16.85;9.02;;;;;;;;;;5001778;28;20145;-68
2021/09/08 08:30:09;;;;;;;20.58;9.05;;;;;;;;;;4996026;28;20537;-71
2021/09/08 08:32:38;;;;;;;18.58;9.25;;;;;;;;;;5005528;28;20046;-67
2021/09/08 08:35:08;;;;;;;18.95;9.48;;;;;;;;;;5004260;28;20054;-70
2021/09/08 08:37:39;;;;;;;18.77;10.25;;;;;;;;;;4996684;28;20092;-69
2021/09/08 08:40:08;;;;;;;17.25;8.50;;;;;;;;;;5000925;28;20046;-66
2021/09/08 08:42:37;;;;;;;17.42;8.90;;;;;;;;;;5005647;28;20053;-67
2021/09/08 08:45:07;;;;;;;17.15;8.10;;;;;;;;;;5005826;28;20080;-71
2021/09/08 08:47:36;;;;;;;15.52;8.30;;;;;;;;;;5003271;28;20482;-74
2021/09/08 08:50:08;;;;;;;10.80;6.30;;;;;;;;;;4997977;28;20077;-71
2021/09/08 08:52:39;;;;;;;13.80;7.07;;;;;;;;;;5004553;28;20186;-67
2021/09/08 08:55:08;;;;;;;22.52;8.25;;;;;;;;;;5008700;28;20116;-67
2021/09/08 08:57:39;;;;;;;15.45;8.15;;;;;;;;;;5005103;28;20053;-73
2021/09/08 09:00:07;;;;;;;17.13;8.23;;;;;;;;;;5004036;28;20388;-67
2021/09/08 09:02:39;;;;;;;15.27;8.70;;;;;;;;;;5002766;28;20402;-71
2021/09/08 09:05:08;;;;;;;16.25;8.25;;;;;;;;;;4989391;28;20068;-69
2021/09/08 09:07:43;;;;;;;16.05;7.95;;;;;;;;;;5001818;28;20380;-70
2021/09/08 09:10:13;;;;;;;16.70;8.02;;;;;;;;;;5002218;28;20379;-66
2021/09/08 09:12:44;;;;;;;15.13;7.93;;;;;;;;;;5000589;28;20068;-69
2021/09/08 09:15:14;;;;;;;15.40;6.43;;;;;;;;;;5004781;28;20498;-72
2021/09/08 09:17:44;;;;;;;10.77;6.68;;;;;;;;;;4990572;28;20054;-69
2021/09/08 09:20:17;;;;;;;11.32;6.32;;;;;;;;;;5003674;28;20100;-72
2021/09/08 09:22:48;;;;;;;13.23;7.57;;;;;;;;;;5000628;28;20529;-69
2021/09/08 09:25:18;;;;;;;14.52;7.50;;;;;;;;;;5004987;28;20061;-74
2021/09/08 09:27:48;;;;;;;13.35;6.88;;;;;;;;;;5005039;28;20057;-67
2021/09/08 09:30:19;;;;;;;16.45;7.72;;;;;;;;;;5001511;28;20563;-72
2021/09/08 09:32:49;;;;;;;14.32;7.40;;;;;;;;;;5010389;28;20115;-75
2021/09/08 09:35:19;;;;;;;14.30;7.80;;;;;;;;;;5002287;28;20049;-76
2021/09/08 09:37:50;;;;;;;15.48;7.10;;;;;;;;;;4997494;28;20081;-71
2021/09/08 09:40:24;;;;;;;13.27;7.95;;;;;;;;;;4995091;28;20081;-76
2021/09/08 09:42:53;;;;;;;14.07;7.25;;;;;;;;;;4993141;28;20380;-70
2021/09/08 09:45:23;;;;;;;14.80;7.68;;;;;;;;;;4995864;28;20149;-69
2021/09/08 09:47:52;;;;;;;13.75;6.80;;;;;;;;;;5000690;28;20053;-77
2021/09/08 09:50:22;;;;;;;14.77;8.18;;;;;;;;;;5002596;28;20517;-70
2021/09/08 09:52:53;;;;;;;17.65;9.80;;;;;;;;;;5000325;28;20050;-70
2021/09/08 09:55:22;;;;;;;14.55;7.82;;;;;;;;;;4998738;28;20142;-70
2021/09/08 09:57:51;;;;;;;12.70;7.63;;;;;;;;;;4995090;28;20105;-75
2021/09/08 10:00:20;;;;;;;15.15;9.07;;;;;;;;;;4990161;28;20052;-73
2021/09/08 10:02:50;;;;;;;16.33;8.43;;;;;;;;;;4995708;28;20045;-74
2021/09/08 10:05:19;;;;;;;17.00;8.38;;;;;;;;;;4995029;28;20064;-75
2021/09/08 10:07:47;;;;;;;17.05;9.55;;;;;;;;;;5004177;28;20046;-70
2021/09/08 10:10:19;;;;;;;15.65;8.27;;;;;;;;;;5004610;28;20053;-70
2021/09/08 10:12:50;;;;;;;15.05;8.77;;;;;;;;;;5005649;28;20065;-66
2021/09/08 10:15:19;;;;;;;17.27;9.25;;;;;;;;;;5005839;28;20130;-67
2021/09/08 10:17:48;;;;;;;16.27;8.75;;;;;;;;;;5009455;28;20053;-71
2021/09/08 10:20:18;;;;;;;15.15;7.88;;;;;;;;;;5008361;28;20159;-67
2021/09/08 10:22:47;;;;;;;15.07;9.02;;;;;;;;;;5020002;28;20147;-68
2021/09/08 10:25:16;;;;;;;16.30;8.18;;;;;;;;;;5020066;28;20050;-68
2021/09/08 10:27:46;;;;;;;12.52;7.32;;;;;;;;;;5009707;28;20418;-75
2021/09/08 10:30:35;;;;;;;14.10;8.18;;;;;;;;;;5008096;28;20120;-75
2021/09/08 10:33:05;;;;;;;14.25;7.47;;;;;;;;;;5000228;28;20086;-72
2021/09/08 10:35:38;;;;;;;12.13;7.13;;;;;;;;;;5002991;28;20052;-72
2021/09/08 10:38:11;;;;;;;11.98;7.18;;;;;;;;;;5002504;28;20069;-72
2021/09/08 10:40:40;;;;;;;15.90;7.30;;;;;;;;;;5002369;28;20082;-66
2021/09/08 10:43:10;;;;;;;12.60;7.53;;;;;;;;;;5004295;28;20120;-70
2021/09/08 10:45:49;;;;;;;12.23;7.30;;;;;;;;;;5005728;28;20053;-71
2021/09/08 10:48:32;;;;;;;10.63;6.55;;;;;;;;;;4995629;28;20049;-75
2021/09/08 10:51:00;;;;;;;11.32;6.88;;;;;;;;;;5003071;28;20193;-67
2021/09/08 10:53:30;;;;;;;11.05;7.38;;;;;;;;;;5006072;28;20465;-70
2021/09/08 10:55:59;;;;;;;12.95;6.97;;;;;;;;;;5005271;28;20134;-78
2021/09/08 10:58:42;;;;;;;13.10;7.70;;;;;;;;;;5002265;28;20529;-77
2021/09/08 11:01:16;;;;;;;9.70;6.10;;;;;;;;;;5000657;28;20064;-67
2021/09/08 11:03:46;;;;;;;10.55;6.22;;;;;;;;;;5004639;28;20053;-75
2021/09/08 11:06:15;;;;;;;10.98;6.05;;;;;;;;;;5007693;28;20141;-69
2021/09/08 11:08:44;;;;;;;13.38;7.53;;;;;;;;;;5011613;28;20076;-66
2021/09/08 11:11:15;;;;;;;10.48;6.22;;;;;;;;;;5023349;28;20128;-69
2021/09/08 11:13:44;;;;;;;11.63;5.45;;;;;;;;;;5020062;28;20509;-68
2021/09/08 11:16:23;;;;;;;9.82;6.10;;;;;;;;;;5015721;28;20045;-66
2021/09/08 11:18:52;;;;;;;9.65;5.95;;;;;;;;;;5001716;28;20038;-67
2021/09/08 11:21:23;;;;;;;9.68;5.95;;;;;;;;;;5011476;28;20050;-67
2021/09/08 11:23:57;;;;;;;9.88;5.65;;;;;;;;;;5013773;28;20152;-67
2021/09/08 11:26:26;;;;;;;11.20;6.47;;;;;;;;;;5011355;28;20184;-67
2021/09/08 11:28:59;;;;;;;10.32;5.90;;;;;;;;;;5017447;28;20129;-68
2021/09/08 11:31:32;;;;;;;8.85;6.03;;;;;;;;;;5009125;28;20088;-70
2021/09/08 11:34:01;;;;;;;10.68;6.05;;;;;;;;;;5001828;28;20520;-67
2021/09/08 11:36:30;;;;;;;9.95;5.18;;;;;;;;;;5021556;28;20379;-67
2021/09/08 11:39:00;;;;;;;10.13;5.53;;;;;;;;;;5020926;28;20572;-67
2021/09/08 11:41:29;;;;;;;9.50;5.13;;;;;;;;;;5014088;28;20084;-70
2021/09/08 11:44:02;;;;;;;7.57;5.47;;;;;;;;;;5004527;28;20046;-70
2021/09/08 11:46:32;;;;;;;7.82;5.35;;;;;;;;;;5007317;28;20077;-67
2021/09/08 11:49:04;;;;;;;8.57;5.25;;;;;;;;;;5013410;28;20054;-69
2021/09/08 11:51:34;;;;;;;8.25;5.28;;;;;;;;;;5012196;28;20129;-70
2021/09/08 11:54:04;;;;;;;8.77;5.70;;;;;;;;;;5009797;28;20133;-66
2021/09/08 11:56:33;;;;;;;8.52;5.63;;;;;;;;;;5010237;28;20132;-68
2021/09/08 11:59:02;;;;;;;6.68;5.05;;;;;;;;;;4998492;28;20054;-67
2021/09/08 12:01:35;;;;;;;8.65;4.97;;;;;;;;;;4995154;28;20243;-67
2021/09/08 12:04:05;;;;;;;9.15;5.85;;;;;;;;;;4994827;28;20068;-70
2021/09/08 12:06:34;;;;;;;7.72;4.85;;;;;;;;;;4993529;28;20046;-72
2021/09/08 12:09:04;;;;;;;8.68;5.35;;;;;;;;;;5002291;28;20493;-67
2021/09/08 12:11:36;;;;;;;7.13;4.93;;;;;;;;;;5002592;28;20512;-71
2021/09/08 12:14:20;;;;;;;8.18;5.40;;;;;;;;;;5008255;28;20789;-73
2021/09/08 12:16:51;;;;;;;9.18;5.43;;;;;;;;;;5003150;28;20383;-80
2021/09/08 12:19:21;;;;;;;8.05;4.80;;;;;;;;;;5007007;28;20061;-66
2021/09/08 12:21:50;;;;;;;7.60;4.97;;;;;;;;;;4997418;28;20046;-67
2021/09/08 12:24:28;;;;;;;7.97;5.10;;;;;;;;;;5009934;28;20410;-68
2021/09/08 12:26:58;;;;;;;6.63;4.50;;;;;;;;;;5009076;28;20077;-66
2021/09/08 12:29:27;;;;;;;6.85;4.40;;;;;;;;;;5010142;28;20058;-67
2021/09/08 12:31:58;;;;;;;8.02;5.28;;;;;;;;;;5008160;28;20069;-66
2021/09/08 12:34:43;;;;;;;6.78;4.85;;;;;;;;;;5007848;28;20046;-68
2021/09/08 12:37:12;;;;;;;7.03;4.75;;;;;;;;;;4992534;28;20082;-67
2021/09/08 12:39:44;;;;;;;9.75;5.05;;;;;;;;;;5008585;28;20120;-68
2021/09/08 12:42:19;;;;;;;8.25;4.55;;;;;;;;;;5006839;28;20520;-72
2021/09/08 12:44:47;;;;;;;6.97;4.93;;;;;;;;;;5007388;28;20056;-67
2021/09/08 12:47:18;;;;;;;8.35;5.13;;;;;;;;;;5005744;28;20553;-66
2021/09/08 12:49:47;;;;;;;7.35;5.00;;;;;;;;;;5007785;28;20100;-70
2021/09/08 12:52:16;;;;;;;8.95;5.50;;;;;;;;;;4999079;28;20125;-67
2021/09/08 12:54:45;;;;;;;9.80;4.82;;;;;;;;;;5009504;28;20046;-66
2021/09/08 12:57:14;;;;;;;8.07;4.95;;;;;;;;;;5004575;28;20085;-69
2021/09/08 12:59:42;;;;;;;9.85;4.75;;;;;;;;;;5009032;28;20132;-71
2021/09/08 13:02:12;;;;;;;7.28;4.90;;;;;;;;;;5007564;28;20052;-69
2021/09/08 13:04:43;;;;;;;8.32;5.47;;;;;;;;;;5007074;28;20057;-70
2021/09/08 13:07:12;;;;;;;6.40;4.55;;;;;;;;;;4997574;28;20085;-67
2021/09/08 13:09:41;;;;;;;8.13;5.03;;;;;;;;;;5005374;28;20045;-74
2021/09/08 13:12:09;;;;;;;7.20;4.75;;;;;;;;;;5008521;28;20570;-68
2021/09/08 13:14:39;;;;;;;6.85;4.88;;;;;;;;;;5008967;28;20379;-73
2021/09/08 13:17:08;;;;;;;7.85;5.35;;;;;;;;;;5009146;28;20503;-68
2021/09/08 13:19:36;;;;;;;7.88;5.20;;;;;;;;;;5009697;28;20482;-73
2021/09/08 13:22:06;;;;;;;7.00;4.82;;;;;;;;;;5002773;28;20448;-72
2021/09/08 13:24:36;;;;;;;8.50;5.45;;;;;;;;;;4996676;28;20073;-75
2021/09/08 13:27:05;;;;;;;9.52;5.22;;;;;;;;;;5000564;28;20573;-70
2021/09/08 13:29:34;;;;;;;8.82;5.03;;;;;;;;;;5003375;28;20052;-67
2021/09/08 13:32:03;;;;;;;8.45;4.90;;;;;;;;;;5001306;28;20057;-67
2021/09/08 13:34:31;;;;;;;8.15;5.28;;;;;;;;;;5000900;28;20056;-67
2021/09/08 13:37:00;;;;;;;10.35;5.22;;;;;;;;;;5000063;28;20046;-71
2021/09/08 13:39:30;;;;;;;7.72;4.65;;;;;;;;;;5003208;28;20418;-73
2021/09/08 13:41:58;;;;;;;7.00;5.03;;;;;;;;;;5002730;28;20059;-67
2021/09/08 13:44:27;;;;;;;7.40;4.95;;;;;;;;;;5001377;28;20410;-67
2021/09/08 13:46:57;;;;;;;8.57;4.75;;;;;;;;;;5000723;28;20042;-70
2021/09/08 13:49:26;;;;;;;8.30;4.95;;;;;;;;;;4996062;28;20072;-67
2021/09/08 13:51:54;;;;;;;7.68;4.82;;;;;;;;;;5003294;28;20042;-68
2021/09/08 13:54:23;;;;;;;6.40;4.53;;;;;;;;;;5007596;28;20081;-67
2021/09/08 13:56:53;;;;;;;7.15;4.93;;;;;;;;;;5010776;28;20121;-70
2021/09/08 13:59:21;;;;;;;6.00;3.97;;;;;;;;;;4998451;28;20104;-72
2021/09/08 14:01:54;;;;;;;7.82;4.68;;;;;;;;;;4995647;28;20085;-71
2021/09/08 14:04:23;;;;;;;6.20;4.43;;;;;;;;;;4996227;28;20072;-68
2021/09/08 14:06:52;;;;;;;8.45;4.47;;;;;;;;;;4992693;28;20061;-70
2021/09/08 14:09:20;;;;;;;5.72;4.70;;;;;;;;;;5009373;28;20073;-75
2021/09/08 14:11:51;;;;;;;6.40;4.38;;;;;;;;;;5008257;28;20073;-72
2021/09/08 14:14:21;;;;;;;7.40;4.78;;;;;;;;;;5011315;28;20129;-67
2021/09/08 14:16:50;;;;;;;8.48;4.80;;;;;;;;;;5010307;28;20078;-67
2021/09/08 14:19:19;;;;;;;8.93;4.53;;;;;;;;;;5012528;28;20053;-68
2021/09/08 14:21:47;;;;;;;7.30;4.57;;;;;;;;;;5005005;28;20073;-74
2021/09/08 14:24:16;;;;;;;6.82;4.68;;;;;;;;;;5010858;28;20123;-70
2021/09/08 14:26:45;;;;;;;9.52;4.70;;;;;;;;;;5003185;28;20050;-78
2021/09/08 14:29:14;;;;;;;6.15;4.18;;;;;;;;;;5008506;28;20052;-73
2021/09/08 14:31:44;;;;;;;7.60;4.68;;;;;;;;;;5010878;28;20502;-67
2021/09/08 14:34:13;;;;;;;9.07;4.90;;;;;;;;;;4996949;28;20084;-68
2021/09/08 14:36:42;;;;;;;6.53;4.30;;;;;;;;;;5011303;28;20046;-70
2021/09/08 14:39:11;;;;;;;7.07;4.72;;;;;;;;;;5011490;28;20049;-67
2021/09/08 14:41:39;;;;;;;6.55;4.30;;;;;;;;;;5006998;28;20498;-68
2021/09/08 14:44:08;;;;;;;6.15;4.20;;;;;;;;;;5006856;28;20373;-66